createdAt,value
2022-10-11T00:00:13.199Z,73.22
2022-10-11T00:02:50.590Z,72.77
2022-10-11T00:05:30.796Z,73.12
2022-10-11T00:08:12.123Z,72.91
2022-10-11T00:10:59.917Z,72.63
2022-10-11T00:13:40.467Z,72.76
2022-10-11T00:16:19.558Z,74.67
2022-10-11T00:18:59.395Z,74.28
2022-10-11T00:21:37.141Z,72.82
2022-10-11T00:24:17.438Z,73.96
2022-10-11T00:26:55.850Z,74.14
2022-10-11T00:29:36.780Z,74.03
2022-10-11T00:32:16.971Z,74.43
2022-10-11T00:34:59.051Z,74.66
2022-10-11T00:37:38.723Z,74.31
2022-10-11T00:40:20.917Z,74.14
2022-10-11T00:42:59.434Z,74.51
2022-10-11T00:45:47.567Z,74.09
2022-10-11T00:48:33.636Z,74.15
2022-10-11T00:51:37.866Z,75.14
2022-10-11T00:54:20.620Z,75.33
2022-10-11T00:57:07.089Z,75.57
2022-10-11T00:59:49.478Z,74.90
2022-10-11T01:02:31.034Z,74.21
2022-10-11T01:05:28.675Z,74.43
2022-10-11T01:08:09.492Z,74.13
2022-10-11T01:10:49.643Z,74.29
2022-10-11T01:14:09.814Z,73.79
2022-10-11T01:16:55.310Z,73.53
2022-10-11T01:19:40.994Z,73.07
2022-10-11T01:22:46.059Z,73.82
2022-10-11T01:25:51.158Z,73.62
2022-10-11T01:28:44.255Z,74.15
2022-10-11T01:31:36.693Z,73.94
2022-10-11T01:34:33.164Z,74.24
2022-10-11T01:37:27.231Z,74.38
2022-10-11T01:40:20.318Z,75.36
2022-10-11T01:43:01.657Z,75.34
2022-10-11T01:45:42.856Z,75.79
2022-10-11T01:48:25.355Z,76.17
2022-10-11T01:51:05.731Z,76.77
2022-10-11T01:53:55.990Z,76.66
2022-10-11T01:57:10.422Z,76.39
2022-10-11T01:59:57.644Z,76.40
2022-10-11T02:03:04.993Z,77.06
2022-10-11T02:06:08.897Z,76.43
2022-10-11T02:08:52.735Z,76.65
2022-10-11T02:11:34.701Z,76.90
2022-10-11T02:14:20.548Z,77.79
2022-10-11T02:17:16.679Z,76.78
2022-10-11T02:19:59.401Z,77.04
2022-10-11T02:22:45.583Z,77.51
2022-10-11T02:25:30.843Z,76.64
2022-10-11T02:28:17.730Z,76.69
2022-10-11T02:31:01.229Z,77.19
2022-10-11T02:33:47.948Z,77.91
2022-10-11T02:36:59.576Z,77.06
2022-10-11T02:39:46.331Z,77.00
2022-10-11T02:42:36.497Z,76.80
2022-10-11T02:45:21.019Z,77.02
2022-10-11T02:48:01.678Z,78.32
2022-10-11T02:50:40.374Z,78.21
2022-10-11T02:53:20.886Z,77.75
2022-10-11T02:55:59.225Z,78.02
2022-10-11T02:58:38.710Z,77.63
2022-10-11T03:01:15.661Z,77.86
2022-10-11T03:03:53.764Z,77.13
2022-10-11T03:06:33.320Z,77.58
2022-10-11T03:09:13.117Z,77.69
2022-10-11T03:11:53.551Z,77.26
2022-10-11T03:14:59.170Z,77.15
2022-10-11T03:17:37.629Z,76.58
2022-10-11T03:20:16.994Z,76.43
2022-10-11T03:22:56.728Z,76.37
2022-10-11T03:25:34.671Z,76.24
2022-10-11T03:28:13.805Z,77.63
2022-10-11T03:30:52.375Z,76.57
2022-10-11T03:33:32.765Z,77.54
2022-10-11T03:36:12.539Z,77.83
2022-10-11T03:38:52.373Z,78.00
2022-10-11T03:41:34.169Z,77.33
2022-10-11T03:44:14.343Z,77.22
2022-10-11T03:46:53.355Z,77.10
2022-10-11T03:49:33.236Z,77.12
2022-10-11T03:52:11.877Z,76.64
2022-10-11T03:54:51.283Z,76.38
2022-10-11T03:57:31.011Z,76.00
2022-10-11T04:00:11.119Z,75.98
2022-10-11T04:02:48.606Z,76.09
2022-10-11T04:05:31.729Z,76.16
2022-10-11T04:08:13.836Z,75.38
2022-10-11T04:10:51.866Z,75.78
2022-10-11T04:13:31.473Z,75.33
2022-10-11T04:16:09.927Z,74.73
2022-10-11T04:18:50.464Z,74.45
2022-10-11T04:21:30.905Z,73.63
2022-10-11T04:24:13.760Z,73.81
2022-10-11T04:26:52.329Z,74.02
2022-10-11T04:29:32.781Z,74.24
2022-10-11T04:32:13.320Z,74.65
2022-10-11T04:34:54.559Z,75.20
2022-10-11T04:37:34.523Z,74.73
2022-10-11T04:40:16.402Z,74.67
2022-10-11T04:42:56.506Z,74.63
2022-10-11T04:45:47.213Z,75.82
2022-10-11T04:48:26.574Z,75.84
2022-10-11T04:51:05.452Z,75.77
2022-10-11T04:53:43.275Z,75.55
2022-10-11T04:56:22.745Z,75.37
2022-10-11T04:59:02.955Z,76.10
2022-10-11T05:01:39.233Z,75.97
2022-10-11T05:04:18.951Z,75.67
2022-10-11T05:06:59.799Z,75.56
2022-10-11T05:09:40.215Z,75.02
2022-10-11T05:12:20.268Z,74.47
2022-10-11T05:14:59.563Z,75.40
2022-10-11T05:17:38.248Z,74.33
2022-10-11T05:20:17.949Z,73.75
2022-10-11T05:22:56.219Z,73.03
2022-10-11T05:25:36.627Z,72.29
2022-10-11T05:28:15.625Z,71.42
2022-10-11T05:30:57.581Z,71.25
2022-10-11T05:33:35.893Z,70.50
2022-10-11T05:36:15.278Z,70.73
2022-10-11T05:38:54.814Z,70.36
2022-10-11T05:41:32.739Z,71.17
2022-10-11T05:44:11.513Z,71.54
2022-10-11T05:47:34.052Z,71.85
2022-10-11T05:50:13.080Z,72.72
2022-10-11T05:52:51.625Z,72.40
2022-10-11T05:55:29.710Z,73.36
2022-10-11T05:58:18.733Z,72.49
2022-10-11T06:00:57.768Z,72.89
2022-10-11T06:03:35.502Z,73.01
2022-10-11T06:06:13.964Z,73.23
2022-10-11T06:08:53.267Z,72.73
2022-10-11T06:11:31.761Z,72.00
2022-10-11T06:14:26.055Z,71.79
2022-10-11T06:17:14.162Z,72.11
2022-10-11T06:20:07.633Z,71.79
2022-10-11T06:22:46.158Z,72.00
2022-10-11T06:25:24.677Z,71.77
2022-10-11T06:28:02.868Z,71.56
2022-10-11T06:30:56.770Z,70.29
2022-10-11T06:33:53.667Z,70.02
2022-10-11T06:36:50.286Z,68.52
2022-10-11T06:39:52.232Z,68.99
2022-10-11T06:42:49.741Z,67.55
2022-10-11T06:45:43.184Z,66.44
2022-10-11T06:48:47.631Z,66.81
2022-10-11T06:51:45.722Z,67.13
2022-10-11T06:54:45.054Z,67.52
2022-10-11T06:57:23.832Z,67.57
2022-10-11T07:00:20.718Z,66.38
2022-10-11T07:03:00.343Z,66.57
2022-10-11T07:05:39.440Z,66.27
2022-10-11T07:08:37.052Z,65.62
2022-10-11T07:11:18.354Z,65.23
2022-10-11T07:14:11.976Z,63.97
2022-10-11T07:16:50.450Z,63.55
2022-10-11T07:19:28.788Z,64.16
2022-10-11T07:22:36.047Z,62.03
2022-10-11T07:25:35.811Z,60.96
2022-10-11T07:28:35.215Z,60.77
2022-10-11T07:31:19.913Z,57.94
2022-10-11T07:33:58.073Z,57.32
2022-10-11T07:36:54.965Z,56.26
2022-10-11T07:39:51.706Z,56.26
2022-10-11T07:42:44.593Z,54.20
2022-10-11T07:45:22.226Z,53.23
2022-10-11T07:48:00.314Z,50.71
2022-10-11T07:50:38.543Z,50.70
2022-10-11T07:53:16.839Z,49.48
2022-10-11T07:56:12.619Z,48.07
2022-10-11T07:59:03.941Z,44.45
2022-10-11T08:01:56.899Z,46.45
2022-10-11T08:04:53.871Z,43.79
2022-10-11T08:07:55.790Z,40.36
2022-10-11T08:10:38.776Z,44.38
2022-10-11T08:13:17.524Z,42.39
2022-10-11T08:15:57.405Z,43.49
2022-10-11T08:18:56.969Z,43.31
2022-10-11T08:22:06.576Z,38.64
2022-10-11T08:25:01.473Z,42.65
2022-10-11T08:27:39.346Z,43.01
2022-10-11T08:30:37.161Z,38.77
2022-10-11T08:33:39.809Z,26.32
2022-10-11T08:36:15.957Z,21.80
2022-10-11T08:38:51.692Z,20.52
2022-10-11T08:42:12.227Z,21.51
2022-10-11T08:45:10.650Z,24.61
2022-10-11T08:48:19.907Z,25.53
2022-10-11T08:51:02.774Z,26.63
2022-10-11T08:53:45.356Z,21.90
2022-10-11T08:56:15.106Z,19.03
2022-10-11T08:58:46.773Z,19.88
2022-10-11T09:01:20.674Z,19.72
2022-10-11T09:03:48.877Z,18.47
2022-10-11T09:06:16.290Z,17.73
2022-10-11T09:09:20.682Z,19.24
2022-10-11T09:11:57.285Z,19.70
2022-10-11T09:14:43.019Z,20.17
2022-10-11T09:17:25.765Z,20.57
2022-10-11T09:20:31.077Z,20.62
2022-10-11T09:23:26.188Z,20.97
2022-10-11T09:26:06.278Z,20.87
2022-10-11T09:28:34.064Z,22.02
2022-10-11T09:31:01.615Z,22.18
2022-10-11T09:33:36.862Z,27.21
2022-10-11T09:36:14.319Z,28.08
2022-10-11T09:38:53.755Z,26.27
2022-10-11T09:41:46.696Z,27.24
2022-10-11T09:44:24.342Z,24.12
2022-10-11T09:46:54.196Z,26.39
2022-10-11T09:49:28.980Z,27.08
2022-10-11T09:51:59.064Z,27.34
2022-10-11T09:54:41.439Z,32.79
2022-10-11T09:57:33.959Z,36.55
2022-10-11T10:00:18.689Z,37.82
2022-10-11T10:02:57.282Z,40.56
2022-10-11T10:05:31.300Z,39.43
2022-10-11T10:08:10.760Z,39.99
2022-10-11T10:10:42.713Z,40.48
2022-10-11T10:13:22.005Z,40.73
2022-10-11T10:15:53.716Z,43.08
2022-10-11T10:18:24.759Z,41.52
2022-10-11T10:20:55.649Z,40.66
2022-10-11T10:23:27.654Z,40.90
2022-10-11T10:26:20.397Z,39.87
2022-10-11T10:29:09.010Z,41.58
2022-10-11T10:31:55.255Z,39.77
2022-10-11T10:34:31.203Z,42.98
2022-10-11T10:37:28.140Z,41.95
2022-10-11T10:40:09.250Z,44.99
2022-10-11T10:42:37.559Z,44.22
2022-10-11T10:45:12.278Z,43.71
2022-10-11T10:47:50.027Z,44.59
2022-10-11T10:50:27.410Z,45.32
2022-10-11T10:53:06.642Z,44.76
2022-10-11T10:55:46.778Z,45.23
2022-10-11T10:58:35.681Z,44.63
2022-10-11T11:01:13.425Z,45.25
2022-10-11T11:04:02.037Z,45.72
2022-10-11T11:06:43.372Z,45.96
2022-10-11T11:09:27.680Z,45.18
2022-10-11T11:11:57.901Z,44.42
2022-10-11T11:14:41.524Z,43.58
2022-10-11T11:17:24.102Z,44.14
2022-10-11T11:20:25.295Z,42.58
2022-10-11T11:23:02.592Z,40.51
2022-10-11T11:25:51.715Z,38.57
2022-10-11T11:28:37.906Z,37.36
2022-10-11T11:31:19.591Z,37.12
2022-10-11T11:34:10.118Z,33.50
2022-10-11T11:36:43.488Z,31.91
2022-10-11T11:39:19.239Z,32.52
2022-10-11T11:41:59.992Z,34.83
2022-10-11T11:44:38.419Z,37.38
2022-10-11T11:47:25.791Z,39.61
2022-10-11T11:50:05.824Z,40.15
2022-10-11T11:52:38.980Z,41.82
2022-10-11T11:55:27.974Z,42.65
2022-10-11T11:58:32.919Z,44.20
2022-10-11T12:01:31.073Z,42.82
2022-10-11T12:04:12.676Z,39.89
2022-10-11T12:06:52.387Z,31.77
2022-10-11T12:09:23.448Z,29.45
2022-10-11T12:12:00.232Z,29.36
2022-10-11T12:14:35.856Z,27.23
2022-10-11T12:17:06.044Z,27.25
2022-10-11T12:19:34.028Z,25.67
2022-10-11T12:22:26.361Z,26.28
2022-10-11T12:25:09.259Z,25.33
2022-10-11T12:27:52.011Z,26.74
2022-10-11T12:30:44.487Z,25.29
2022-10-11T12:33:42.840Z,27.65
2022-10-11T12:36:32.347Z,25.64
2022-10-11T12:39:18.386Z,28.30
2022-10-11T12:41:48.909Z,25.96
2022-10-11T12:44:20.031Z,26.19
2022-10-11T12:46:50.094Z,25.51
2022-10-11T12:49:48.464Z,24.90
2022-10-11T12:52:28.450Z,23.94
2022-10-11T12:55:31.340Z,24.08
2022-10-11T12:58:23.180Z,26.04
2022-10-11T13:00:56.335Z,24.65
2022-10-11T13:03:32.765Z,25.29
2022-10-11T13:06:15.702Z,25.27
2022-10-11T13:08:47.462Z,24.45
2022-10-11T13:11:21.164Z,29.28
2022-10-11T13:13:54.179Z,29.84
2022-10-11T13:16:26.556Z,35.44
2022-10-11T13:18:59.718Z,37.21
2022-10-11T13:21:39.372Z,39.53
2022-10-11T13:24:18.693Z,39.86
2022-10-11T13:26:49.236Z,40.21
2022-10-11T13:29:27.650Z,38.61
2022-10-11T13:31:55.992Z,37.82
2022-10-11T13:34:24.424Z,35.23
2022-10-11T13:36:59.286Z,31.93
2022-10-11T13:39:34.427Z,33.37
2022-10-11T13:42:07.123Z,32.55
2022-10-11T13:44:37.535Z,31.77
2022-10-11T13:47:05.461Z,30.41
2022-10-11T13:49:38.448Z,29.72
2022-10-11T13:52:21.729Z,32.22
2022-10-11T13:55:00.796Z,34.72
2022-10-11T13:57:39.015Z,38.81
2022-10-11T14:00:15.663Z,41.73
2022-10-11T14:02:58.100Z,42.54
2022-10-11T14:05:30.597Z,43.85
2022-10-11T14:08:00.887Z,44.45
2022-10-11T14:10:28.867Z,46.72
2022-10-11T14:13:03.832Z,47.04
2022-10-11T14:15:34.587Z,48.54
2022-10-11T14:18:22.732Z,48.33
2022-10-11T14:20:50.279Z,49.67
2022-10-11T14:23:17.934Z,50.12
2022-10-11T14:25:46.345Z,50.65
2022-10-11T14:28:13.967Z,51.49
2022-10-11T14:30:42.979Z,51.90
2022-10-11T14:33:11.492Z,52.33
2022-10-11T14:35:41.568Z,52.51
2022-10-11T14:38:11.753Z,52.70
2022-10-11T14:40:39.264Z,52.58
2022-10-11T14:43:06.830Z,52.02
2022-10-11T14:45:35.368Z,52.77
2022-10-11T14:48:02.950Z,52.32
2022-10-11T14:50:30.431Z,51.84
2022-10-11T14:52:58.215Z,52.05
2022-10-11T14:55:27.240Z,53.08
2022-10-11T14:57:56.311Z,53.28
2022-10-11T15:00:29.656Z,53.58
2022-10-11T15:02:57.938Z,54.56
2022-10-11T15:05:33.651Z,54.72
2022-10-11T15:08:04.416Z,54.74
2022-10-11T15:10:40.712Z,54.77
2022-10-11T15:13:09.017Z,55.85
2022-10-11T15:15:40.866Z,55.01
2022-10-11T15:18:13.348Z,56.28
2022-10-11T15:20:44.111Z,56.44
2022-10-11T15:23:12.217Z,55.85
2022-10-11T15:25:42.042Z,55.83
2022-10-11T15:28:23.264Z,57.18
2022-10-11T15:30:51.156Z,57.83
2022-10-11T15:33:18.855Z,58.76
2022-10-11T15:35:46.483Z,58.37
2022-10-11T15:38:21.802Z,58.82
2022-10-11T15:40:50.466Z,59.82
2022-10-11T15:43:23.467Z,59.53
2022-10-11T15:45:52.296Z,62.12
2022-10-11T15:48:21.902Z,62.45
2022-10-11T15:50:50.320Z,63.00
2022-10-11T15:53:23.308Z,64.00
2022-10-11T15:55:53.141Z,64.51
2022-10-11T15:58:26.424Z,65.07
2022-10-11T16:00:57.026Z,66.15
2022-10-11T16:03:27.387Z,66.87
2022-10-11T16:05:55.546Z,67.11
2022-10-11T16:08:23.445Z,66.06
2022-10-11T16:10:51.215Z,66.88
2022-10-11T16:13:18.927Z,66.87
2022-10-11T16:15:47.208Z,67.72
2022-10-11T16:18:17.260Z,67.80
2022-10-11T16:20:47.132Z,67.28
2022-10-11T16:23:15.540Z,68.36
2022-10-11T16:25:43.375Z,68.86
2022-10-11T16:28:11.501Z,69.12
2022-10-11T16:30:43.174Z,70.30
2022-10-11T16:33:11.012Z,69.94
2022-10-11T16:35:42.516Z,69.02
2022-10-11T16:38:14.985Z,70.15
2022-10-11T16:40:43.475Z,70.34
2022-10-11T16:43:10.998Z,69.75
2022-10-11T16:45:38.528Z,69.58
2022-10-11T16:48:06.045Z,69.85
2022-10-11T16:50:39.090Z,69.96
2022-10-11T16:53:08.116Z,69.75
2022-10-11T16:55:35.694Z,69.47
2022-10-11T16:58:03.201Z,70.38
2022-10-11T17:00:33.439Z,70.45
2022-10-11T17:03:01.512Z,71.17
2022-10-11T17:05:28.985Z,71.79
2022-10-11T17:07:56.757Z,71.49
2022-10-11T17:10:39.399Z,71.24
2022-10-11T17:13:07.367Z,71.35
2022-10-11T17:15:36.110Z,70.74
2022-10-11T17:18:03.846Z,71.42
2022-10-11T17:20:31.444Z,71.62
2022-10-11T17:22:58.900Z,71.12
2022-10-11T17:25:26.399Z,70.93
2022-10-11T17:27:56.321Z,71.44
2022-10-11T17:30:24.902Z,71.39
2022-10-11T17:32:52.552Z,71.77
2022-10-11T17:35:20.202Z,71.43
2022-10-11T17:37:49.865Z,71.01
2022-10-11T17:40:17.724Z,71.20
2022-10-11T17:42:45.264Z,70.95
2022-10-11T17:45:14.606Z,70.89
2022-10-11T17:47:42.090Z,70.58
2022-10-11T17:50:09.787Z,70.82
2022-10-11T17:52:37.367Z,70.62
2022-10-11T17:55:05.374Z,71.40
2022-10-11T17:57:32.904Z,70.52
2022-10-11T18:00:02.037Z,69.90
2022-10-11T18:02:32.441Z,70.86
2022-10-11T18:05:00.051Z,71.37
2022-10-11T18:07:27.634Z,71.30
2022-10-11T18:09:55.530Z,71.04
2022-10-11T18:12:23.671Z,72.82
2022-10-11T18:14:51.176Z,73.20
2022-10-11T18:17:19.089Z,73.80
2022-10-11T18:19:47.660Z,72.96
2022-10-11T18:22:15.303Z,74.27
2022-10-11T18:24:42.862Z,75.46
2022-10-11T18:27:10.299Z,74.61
2022-10-11T18:29:38.498Z,73.83
2022-10-11T18:32:06.023Z,74.14
2022-10-11T18:34:33.551Z,75.49
2022-10-11T18:37:01.036Z,75.36
2022-10-11T18:39:28.823Z,76.08
2022-10-11T18:41:56.641Z,76.48
2022-10-11T18:44:24.151Z,76.48
2022-10-11T18:46:51.849Z,76.07
2022-10-11T18:49:19.728Z,75.90
2022-10-11T18:51:47.987Z,76.11
2022-10-11T18:54:20.147Z,76.47
2022-10-11T18:56:49.104Z,75.97
2022-10-11T18:59:16.974Z,75.62
2022-10-11T19:01:44.780Z,75.71
2022-10-11T19:04:16.128Z,75.43
2022-10-11T19:06:49.254Z,75.86
2022-10-11T19:09:21.845Z,75.60
2022-10-11T19:11:50.770Z,75.21
2022-10-11T19:14:21.071Z,75.14
2022-10-11T19:16:51.473Z,75.83
2022-10-11T19:19:23.486Z,76.25
2022-10-11T19:21:51.529Z,74.83
2022-10-11T19:24:21.461Z,75.52
2022-10-11T19:26:52.757Z,75.45
2022-10-11T19:29:24.696Z,75.70
2022-10-11T19:31:54.427Z,75.43
2022-10-11T19:34:23.227Z,76.03
2022-10-11T19:36:52.753Z,76.82
2022-10-11T19:39:22.043Z,76.17
2022-10-11T19:41:49.559Z,76.04
2022-10-11T19:44:17.561Z,75.46
2022-10-11T19:46:51.628Z,76.44
2022-10-11T19:49:25.783Z,76.33
2022-10-11T19:51:53.821Z,75.74
2022-10-11T19:54:21.379Z,75.98
2022-10-11T19:56:49.022Z,76.40
2022-10-11T19:59:16.947Z,76.13
2022-10-11T20:01:49.398Z,76.40
2022-10-11T20:04:39.956Z,75.76
2022-10-11T20:07:06.227Z,75.70
2022-10-11T20:09:33.787Z,75.81
2022-10-11T20:12:01.234Z,75.52
2022-10-11T20:14:28.757Z,76.13
2022-10-11T20:16:56.523Z,76.69
2022-10-11T20:19:30.607Z,76.00
2022-10-11T20:22:00.561Z,76.69
2022-10-11T20:24:32.669Z,75.90
2022-10-11T20:27:05.376Z,75.54
2022-10-11T20:29:32.837Z,75.91
2022-10-11T20:32:00.427Z,76.75
2022-10-11T20:34:28.226Z,77.31
2022-10-11T20:36:55.824Z,76.67
2022-10-11T20:39:23.822Z,76.10
2022-10-11T20:41:51.390Z,76.48
2022-10-11T20:44:18.950Z,76.35
2022-10-11T20:46:46.494Z,76.83
2022-10-11T20:49:14.000Z,77.08
2022-10-11T20:51:42.630Z,77.26
2022-10-11T20:54:10.859Z,77.53
2022-10-11T20:56:38.921Z,76.86
2022-10-11T20:59:07.247Z,78.03
2022-10-11T21:01:39.874Z,78.42
2022-10-11T21:04:14.280Z,78.46
2022-10-11T21:06:42.042Z,78.13
2022-10-11T21:09:11.347Z,78.00
2022-10-11T21:11:41.648Z,78.35
2022-10-11T21:14:09.151Z,78.09
2022-10-11T21:16:36.742Z,77.25
2022-10-11T21:19:04.304Z,77.11
2022-10-11T21:21:31.919Z,77.50
2022-10-11T21:24:01.142Z,76.77
2022-10-11T21:26:30.513Z,77.04
2022-10-11T21:29:01.044Z,77.23
2022-10-11T21:31:33.809Z,76.59
2022-10-11T21:34:02.736Z,76.94
2022-10-11T21:36:30.387Z,77.07
2022-10-11T21:38:57.843Z,77.26
2022-10-11T21:41:26.617Z,76.89
2022-10-11T21:43:54.099Z,76.88
2022-10-11T21:46:32.502Z,76.54
2022-10-11T21:49:09.490Z,76.87
2022-10-11T21:51:36.955Z,77.33
2022-10-11T21:54:05.289Z,77.57
2022-10-11T21:56:32.862Z,77.63
2022-10-11T21:59:00.384Z,77.79
2022-10-11T22:01:28.093Z,78.31
2022-10-11T22:03:55.660Z,78.63
2022-10-11T22:06:23.290Z,78.29
2022-10-11T22:08:52.717Z,78.10
2022-10-11T22:11:20.227Z,78.48
2022-10-11T22:13:47.799Z,78.77
2022-10-11T22:16:15.844Z,78.88
2022-10-11T22:18:43.601Z,77.83
2022-10-11T22:21:15.418Z,77.30
2022-10-11T22:23:45.005Z,77.61
2022-10-11T22:26:25.043Z,78.74
2022-10-11T22:28:53.523Z,79.74
2022-10-11T22:31:22.554Z,79.00
2022-10-11T22:33:54.919Z,79.43
2022-10-11T22:36:24.305Z,78.71
2022-10-11T22:38:52.718Z,78.52
2022-10-11T22:41:20.310Z,78.84
2022-10-11T22:43:47.908Z,78.35
2022-10-11T22:46:16.648Z,79.24
2022-10-11T22:48:44.131Z,78.84
2022-10-11T22:51:11.642Z,78.81
2022-10-11T22:53:39.101Z,79.32
2022-10-11T22:56:06.906Z,79.04
2022-10-11T22:58:34.527Z,79.35
2022-10-11T23:01:15.160Z,79.70
2022-10-11T23:03:43.355Z,79.42
2022-10-11T23:06:10.898Z,79.23
2022-10-11T23:08:38.382Z,79.40
2022-10-11T23:11:07.642Z,78.90
2022-10-11T23:13:35.523Z,79.83
2022-10-11T23:16:10.978Z,79.17
2022-10-11T23:18:39.196Z,79.71
2022-10-11T23:21:07.141Z,80.43
2022-10-11T23:23:35.148Z,79.78
2022-10-11T23:26:12.061Z,79.46
2022-10-11T23:28:40.458Z,79.61
2022-10-11T23:31:13.124Z,79.28
2022-10-11T23:33:41.046Z,78.67
2022-10-11T23:36:26.784Z,78.84
2022-10-11T23:38:58.620Z,79.10
2022-10-11T23:41:28.890Z,79.87
2022-10-11T23:43:58.026Z,79.06
2022-10-11T23:46:25.590Z,78.71
2022-10-11T23:48:53.207Z,79.36
2022-10-11T23:51:21.220Z,79.59
2022-10-11T23:53:48.744Z,79.04
2022-10-11T23:56:16.201Z,78.95
2022-10-11T23:58:43.646Z,78.74
